CLE weather

Cleveland Hopkins International Airport
Cleveland, Ohio, United States

Public forecast

Using degrees Fahrenheit for public forecast. Weather courtesy of forecast.io.

Current aviation weather report (METAR) for Cleveland Hopkins International Airport

Retrieved 2020/04/05 11:51 UTC (41 minutes ago):

KCLE 051151Z 02009KT 10SM OVC007 06/03 A3013 RMK AO2 SLP205 T00560028 10106 20056 53014

Aviation forecast (TAF) for Cleveland Hopkins International Airport

Retrieved 2020/04/05 12:24 UTC (8 minutes ago):

TAF KCLE 051121Z 0512/0618 36006KT P6SM OVC008 TEMPO 0512/0515 OVC006 FM051500 36008KT P6SM OVC015 FM051800 36008KT P6SM BKN060 FM061100 00000KT 3SM BR FEW150 FM061400 00000KT P6SM FEW200